TimeEST,TemperatureF,Dew PointF,Humidity,Sea Level PressureIn,VisibilityMPH,Wind Direction,Wind SpeedMPH,Gust SpeedMPH,PrecipitationIn,Events,Conditions,WindDirDegrees,DateUTC
12:17 AM,30.2,28.4,93,30.17,4.0,Calm,Calm,-,N/A,,Clear,0,2012-11-09 05:17:00
12:37 AM,30.2,28.4,93,30.17,4.0,Calm,Calm,-,N/A,,Clear,0,2012-11-09 05:37:00
12:58 AM,30.2,28.4,93,30.17,4.0,Calm,Calm,-,N/A,,Clear,0,2012-11-09 05:58:00
1:17 AM,28.4,28.4,100,30.17,4.0,Calm,Calm,-,N/A,,Clear,0,2012-11-09 06:17:00
1:37 AM,30.2,28.4,93,30.17,4.0,Calm,Calm,-,N/A,,Clear,0,2012-11-09 06:37:00
1:58 AM,28.4,28.4,100,30.17,2.5,Calm,Calm,-,N/A,,Clear,0,2012-11-09 06:58:00
2:17 AM,28.4,28.4,100,30.18,2.5,Calm,Calm,-,N/A,,Clear,0,2012-11-09 07:17:00
2:37 AM,26.6,26.6,100,30.18,2.5,Calm,Calm,-,N/A,,Clear,0,2012-11-09 07:37:00
2:58 AM,28.4,28.4,100,30.18,2.5,Calm,Calm,-,N/A,,Clear,0,2012-11-09 07:58:00
3:17 AM,28.4,28.4,100,30.18,5.0,Calm,Calm,-,N/A,,Clear,0,2012-11-09 08:17:00
3:37 AM,28.4,28.4,100,30.18,4.0,Calm,Calm,-,N/A,,Clear,0,2012-11-09 08:37:00
3:58 AM,28.4,28.4,100,30.18,2.0,Calm,Calm,-,N/A,,Clear,0,2012-11-09 08:58:00
4:17 AM,28.4,26.6,93,30.20,2.0,Calm,Calm,-,N/A,,Clear,0,2012-11-09 09:17:00
4:37 AM,28.4,26.6,93,30.20,2.5,Calm,Calm,-,N/A,,Clear,0,2012-11-09 09:37:00
4:58 AM,26.6,26.6,100,30.21,1.0,Calm,Calm,-,N/A,,Mist,0,2012-11-09 09:58:00
5:17 AM,26.6,24.8,93,30.21,1.8,Calm,Calm,-,N/A,,Mist,0,2012-11-09 10:17:00
5:38 AM,26.6,26.6,100,30.22,2.0,Calm,Calm,-,N/A,,Clear,0,2012-11-09 10:38:00
5:58 AM,28.4,26.6,93,30.22,1.8,Calm,Calm,-,N/A,,Mist,0,2012-11-09 10:58:00
6:17 AM,28.4,28.4,100,30.22,2.0,Calm,Calm,-,N/A,,Clear,0,2012-11-09 11:17:00
6:58 AM,28.4,26.6,93,30.23,0.5,Calm,Calm,-,N/A,Fog,Light Freezing Fog,0,2012-11-09 11:58:00
7:17 AM,28.4,26.6,93,30.23,0.5,Calm,Calm,-,N/A,Fog,Light Freezing Fog,0,2012-11-09 12:17:00
7:38 AM,28.4,26.6,93,30.24,0.2,Calm,Calm,-,N/A,Fog,Light Freezing Fog,0,2012-11-09 12:38:00
7:58 AM,28.4,26.6,93,30.24,1.0,Calm,Calm,-,N/A,,Mist,0,2012-11-09 12:58:00
8:17 AM,30.2,30.2,100,30.24,2.5,Calm,Calm,-,N/A,,Clear,0,2012-11-09 13:17:00
8:38 AM,32.0,32.0,100,30.25,3.0,Calm,Calm,-,N/A,,Clear,0,2012-11-09 13:38:00
8:58 AM,33.8,32.0,93,30.25,4.0,Calm,Calm,-,N/A,,Clear,0,2012-11-09 13:58:00
9:17 AM,35.6,33.8,93,30.25,4.0,South,3.5,-,N/A,,Clear,190,2012-11-09 14:17:00
9:58 AM,41.0,33.8,76,30.24,5.0,SSW,6.9,-,N/A,,Haze,210,2012-11-09 14:58:00
10:17 AM,42.8,35.6,76,30.24,5.0,South,4.6,-,N/A,,Haze,190,2012-11-09 15:17:00
10:38 AM,44.6,35.6,71,30.24,5.0,SSW,6.9,-,N/A,,Haze,200,2012-11-09 15:38:00
10:58 AM,46.4,35.6,66,30.24,5.0,South,5.8,-,N/A,,Haze,190,2012-11-09 15:58:00
11:17 AM,48.2,35.6,62,30.24,7.0,SW,8.1,-,N/A,,Clear,230,2012-11-09 16:17:00
11:38 AM,50.0,37.4,62,30.23,7.0,SSW,9.2,-,N/A,,Clear,210,2012-11-09 16:38:00
11:58 AM,50.0,37.4,62,30.22,7.0,SW,9.2,-,N/A,,Clear,220,2012-11-09 16:58:00
12:17 PM,51.8,37.4,58,30.20,10.0,SW,6.9,-,N/A,,Clear,230,2012-11-09 17:17:00
12:38 PM,51.8,37.4,58,30.19,10.0,SSW,10.4,-,N/A,,Clear,200,2012-11-09 17:38:00
12:57 PM,53.6,37.4,54,30.19,10.0,SW,8.1,-,N/A,,Clear,220,2012-11-09 17:57:00
1:17 PM,53.6,37.4,54,30.17,10.0,South,8.1,-,N/A,,Clear,180,2012-11-09 18:17:00
1:38 PM,53.6,37.4,54,30.16,10.0,South,10.4,-,N/A,,Clear,190,2012-11-09 18:38:00
1:57 PM,53.6,35.6,51,30.16,10.0,South,9.2,-,N/A,,Clear,170,2012-11-09 18:57:00
2:17 PM,55.4,35.6,47,30.16,10.0,SSW,9.2,16.1,N/A,,Clear,200,2012-11-09 19:17:00
2:38 PM,55.4,35.6,47,30.15,10.0,South,11.5,-,N/A,,Clear,190,2012-11-09 19:38:00
2:57 PM,55.4,35.6,47,30.15,10.0,South,10.4,-,N/A,,Clear,180,2012-11-09 19:57:00
3:17 PM,55.4,35.6,47,30.15,10.0,South,9.2,-,N/A,,Clear,180,2012-11-09 20:17:00
3:38 PM,55.4,35.6,47,30.15,10.0,South,9.2,-,N/A,,Clear,190,2012-11-09 20:38:00
3:57 PM,55.4,35.6,47,30.15,10.0,South,9.2,-,N/A,,Clear,190,2012-11-09 20:57:00
4:18 PM,55.4,35.6,47,30.15,10.0,South,9.2,-,N/A,,Clear,180,2012-11-09 21:18:00
4:38 PM,53.6,35.6,51,30.15,10.0,South,6.9,-,N/A,,Clear,180,2012-11-09 21:38:00
4:57 PM,51.8,35.6,54,30.14,10.0,South,6.9,-,N/A,,Clear,180,2012-11-09 21:57:00
5:18 PM,50.0,35.6,58,30.14,10.0,SSE,6.9,-,N/A,,Clear,160,2012-11-09 22:18:00
5:38 PM,48.2,35.6,62,30.15,10.0,South,5.8,-,N/A,,Clear,170,2012-11-09 22:38:00
5:57 PM,46.4,35.6,66,30.15,10.0,South,4.6,-,N/A,,Clear,170,2012-11-09 22:57:00
6:18 PM,46.4,35.6,66,30.15,10.0,South,5.8,-,N/A,,Scattered Clouds,170,2012-11-09 23:18:00
6:38 PM,46.4,33.8,62,30.15,10.0,South,4.6,-,N/A,,Scattered Clouds,170,2012-11-09 23:38:00
6:57 PM,44.6,33.8,66,30.15,10.0,South,4.6,-,N/A,,Scattered Clouds,170,2012-11-09 23:57:00
7:18 PM,46.4,35.6,66,30.15,10.0,SSE,6.9,-,N/A,,Mostly Cloudy,150,2012-11-10 00:18:00
7:38 PM,46.4,35.6,66,30.15,10.0,SSE,6.9,-,N/A,,Mostly Cloudy,150,2012-11-10 00:38:00
7:57 PM,44.6,35.6,71,30.15,10.0,SSE,8.1,-,N/A,,Scattered Clouds,150,2012-11-10 00:57:00
8:18 PM,46.4,35.6,66,30.14,10.0,SSE,6.9,-,N/A,,Scattered Clouds,160,2012-11-10 01:18:00
8:38 PM,46.4,35.6,66,30.14,10.0,SSE,6.9,-,N/A,,Mostly Cloudy,160,2012-11-10 01:38:00
8:57 PM,46.4,35.6,66,30.13,10.0,South,6.9,-,N/A,,Scattered Clouds,170,2012-11-10 01:57:00
9:18 PM,44.6,33.8,66,30.14,10.0,South,4.6,-,N/A,,Scattered Clouds,180,2012-11-10 02:18:00
9:37 PM,46.4,33.8,62,30.14,10.0,South,5.8,-,N/A,,Scattered Clouds,180,2012-11-10 02:37:00
9:57 PM,46.4,35.6,66,30.15,10.0,South,5.8,-,N/A,,Overcast,180,2012-11-10 02:57:00
10:18 PM,48.2,35.6,62,30.14,10.0,South,5.8,-,N/A,Thunderstorm,Overcast,170,2012-11-10 03:18:00
10:37 PM,48.2,35.6,62,30.14,10.0,South,5.8,-,N/A,,Overcast,180,2012-11-10 03:37:00
10:57 PM,48.2,35.6,62,30.15,10.0,Calm,Calm,-,N/A,Rain-Thunderstorm,Light Thunderstorms and Rain,0,2012-11-10 03:57:00
11:18 PM,48.2,37.4,66,30.15,10.0,ESE,4.6,-,N/A,Rain-Thunderstorm,Light Thunderstorms and Rain,110,2012-11-10 04:18:00
11:37 PM,48.2,35.6,62,30.14,10.0,SE,5.8,-,N/A,Thunderstorm,Thunderstorm,140,2012-11-10 04:37:00
11:58 PM,46.4,39.2,76,30.16,10.0,ENE,3.5,-,N/A,Thunderstorm,Overcast,60,2012-11-10 04:58:00